createdAt,value
2022-08-04T00:00:08.160Z,74.98
2022-08-04T00:02:52.519Z,74.72
2022-08-04T00:05:34.031Z,75.24
2022-08-04T00:08:11.898Z,74.81
2022-08-04T00:10:40.726Z,74.96
2022-08-04T00:13:09.730Z,75.45
2022-08-04T00:15:44.936Z,75.50
2022-08-04T00:18:16.938Z,76.21
2022-08-04T00:20:46.632Z,76.30
2022-08-04T00:23:16.860Z,77.51
2022-08-04T00:25:45.003Z,76.36
2022-08-04T00:28:16.185Z,77.42
2022-08-04T00:30:45.527Z,76.90
2022-08-04T00:33:19.252Z,78.31
2022-08-04T00:35:48.398Z,78.33
2022-08-04T00:38:20.487Z,78.30
2022-08-04T00:41:00.991Z,78.30
2022-08-04T00:43:33.475Z,77.73
2022-08-04T00:46:37.035Z,77.97
2022-08-04T00:49:34.048Z,78.21
2022-08-04T00:52:32.454Z,78.14
2022-08-04T00:55:28.255Z,78.52
2022-08-04T00:58:06.779Z,79.27
2022-08-04T01:00:47.118Z,78.61
2022-08-04T01:03:24.445Z,79.21
2022-08-04T01:06:07.291Z,77.91
2022-08-04T01:08:56.485Z,78.39
2022-08-04T01:11:57.063Z,78.61
2022-08-04T01:14:46.266Z,79.77
2022-08-04T01:20:06.270Z,79.03
2022-08-04T01:23:04.996Z,79.60
2022-08-04T01:26:00.012Z,79.63
2022-08-04T01:28:45.762Z,81.07
2022-08-04T01:31:23.702Z,80.07
2022-08-04T01:34:03.556Z,78.99
2022-08-04T01:36:34.472Z,79.39
2022-08-04T01:39:10.175Z,79.31
2022-08-04T01:41:38.021Z,79.22
2022-08-04T01:44:10.345Z,79.26
2022-08-04T01:46:40.766Z,80.19
2022-08-04T01:49:13.048Z,80.28
2022-08-04T01:51:45.355Z,81.88
2022-08-04T01:54:17.979Z,80.67
2022-08-04T01:56:47.099Z,80.91
2022-08-04T01:59:19.047Z,82.03
2022-08-04T02:01:48.873Z,82.53
2022-08-04T02:04:23.114Z,81.01
2022-08-04T02:07:07.843Z,82.05
2022-08-04T02:09:54.481Z,81.39
2022-08-04T02:12:31.657Z,80.84
2022-08-04T02:15:11.237Z,81.86
2022-08-04T02:17:51.081Z,82.98
2022-08-04T02:20:25.435Z,83.52
2022-08-04T02:22:56.457Z,83.55
2022-08-04T02:25:26.750Z,84.12
2022-08-04T02:28:14.889Z,86.01
2022-08-04T02:30:51.028Z,87.94
2022-08-04T02:33:24.765Z,86.62
2022-08-04T02:35:57.331Z,87.19
2022-08-04T02:38:40.639Z,86.98
2022-08-04T02:41:14.287Z,85.66
2022-08-04T02:43:50.932Z,85.71
2022-08-04T02:46:22.527Z,85.88
2022-08-04T02:48:52.311Z,86.42
2022-08-04T02:51:25.330Z,87.11
2022-08-04T02:53:55.622Z,86.82
2022-08-04T02:56:27.611Z,85.64
2022-08-04T02:58:59.992Z,86.64
2022-08-04T03:01:33.059Z,86.44
2022-08-04T03:04:32.602Z,86.11
2022-08-04T03:07:23.556Z,86.39
2022-08-04T03:10:29.381Z,86.25
2022-08-04T03:13:33.438Z,86.01
2022-08-04T03:16:30.017Z,87.88
2022-08-04T03:19:11.735Z,89.37
2022-08-04T03:22:28.629Z,88.95
2022-08-04T03:25:31.581Z,87.41
2022-08-04T03:28:38.941Z,85.95
2022-08-04T03:31:47.579Z,85.55
2022-08-04T03:34:40.527Z,84.94
2022-08-04T03:38:02.117Z,87.48
2022-08-04T03:40:41.391Z,89.63
2022-08-04T03:43:57.546Z,89.38
2022-08-04T03:47:00.196Z,89.75
2022-08-04T03:50:22.059Z,89.30
2022-08-04T03:53:32.257Z,90.28
2022-08-04T03:56:37.950Z,91.10
2022-08-04T03:59:26.348Z,89.76
2022-08-04T04:02:37.510Z,90.69
2022-08-04T04:05:56.042Z,91.34
2022-08-04T04:08:49.574Z,91.07
2022-08-04T04:11:54.153Z,92.97
2022-08-04T04:15:01.060Z,92.80
2022-08-04T04:17:56.219Z,90.68
2022-08-04T04:20:44.208Z,91.16
2022-08-04T04:23:43.564Z,91.51
2022-08-04T04:26:37.366Z,91.77
2022-08-04T04:29:28.353Z,92.56
2022-08-04T04:34:50.069Z,92.86
2022-08-04T04:37:48.582Z,92.76
2022-08-04T04:40:47.341Z,93.42
2022-08-04T04:43:50.993Z,93.36
2022-08-04T04:46:30.431Z,93.71
2022-08-04T04:49:04.397Z,94.39
2022-08-04T04:51:40.309Z,94.35
2022-08-04T04:54:18.942Z,95.00
2022-08-04T04:56:56.335Z,95.00
2022-08-04T04:59:28.933Z,94.89
2022-08-04T05:02:52.259Z,94.13
2022-08-04T05:05:37.519Z,94.33
2022-08-04T05:08:51.228Z,93.74
2022-08-04T05:11:55.012Z,94.72
2022-08-04T05:14:37.200Z,95.00
2022-08-04T05:17:18.439Z,95.00
2022-08-04T05:19:53.732Z,95.00
2022-08-04T05:22:28.648Z,95.00
2022-08-04T05:25:01.797Z,95.00
2022-08-04T05:27:39.792Z,95.00
2022-08-04T05:30:11.168Z,95.00
2022-08-04T05:32:48.862Z,95.00
2022-08-04T05:35:47.831Z,83.31
2022-08-04T05:38:12.121Z,74.37
2022-08-04T05:40:40.331Z,66.38
2022-08-04T05:43:12.090Z,62.32
2022-08-04T05:45:43.834Z,59.64
2022-08-04T05:48:12.789Z,55.47
2022-08-04T05:50:40.159Z,55.01
2022-08-04T05:53:11.470Z,52.91
2022-08-04T05:55:59.313Z,53.05
2022-08-04T05:58:29.405Z,52.33
2022-08-04T06:01:01.155Z,51.69
2022-08-04T06:03:30.502Z,52.41
2022-08-04T06:06:00.161Z,53.02
2022-08-04T06:08:27.410Z,51.81
2022-08-04T06:10:59.656Z,52.20
2022-08-04T06:13:48.608Z,51.42
2022-08-04T06:16:28.805Z,52.01
2022-08-04T06:20:02.496Z,54.42
2022-08-04T06:22:02.365Z,52.17
2022-08-04T06:24:36.311Z,53.64
2022-08-04T06:27:07.950Z,49.58
2022-08-04T06:29:51.221Z,48.55
2022-08-04T06:32:27.709Z,47.07
2022-08-04T06:35:01.621Z,46.42
2022-08-04T06:37:41.907Z,46.71
2022-08-04T06:40:32.533Z,46.09
2022-08-04T06:43:09.813Z,47.29
2022-08-04T06:45:42.155Z,47.48
2022-08-04T06:48:16.224Z,45.11
2022-08-04T06:51:27.575Z,46.01
2022-08-04T06:53:39.548Z,47.26
2022-08-04T06:56:11.035Z,47.06
2022-08-04T06:58:42.943Z,46.36
2022-08-04T07:01:13.511Z,46.29
2022-08-04T07:03:44.569Z,45.96
2022-08-04T07:06:16.319Z,48.04
2022-08-04T07:08:44.181Z,45.78
2022-08-04T07:11:12.418Z,45.47
2022-08-04T07:13:44.982Z,46.27
2022-08-04T07:16:14.577Z,45.26
2022-08-04T07:18:43.459Z,44.53
2022-08-04T07:21:21.219Z,45.02
2022-08-04T07:23:48.724Z,45.71
2022-08-04T07:26:16.092Z,45.60
2022-08-04T07:28:44.690Z,45.42
2022-08-04T07:31:33.258Z,44.02
2022-08-04T07:34:16.715Z,45.51
2022-08-04T07:36:55.674Z,45.35
2022-08-04T07:39:29.421Z,45.23
2022-08-04T07:41:58.550Z,43.99
2022-08-04T07:44:27.518Z,43.13
2022-08-04T07:46:55.075Z,43.25
2022-08-04T07:49:54.428Z,45.00
2022-08-04T07:52:13.393Z,44.28
2022-08-04T07:54:43.702Z,42.73
2022-08-04T07:57:19.654Z,43.91
2022-08-04T08:00:00.963Z,42.75
2022-08-04T08:02:29.418Z,43.95
2022-08-04T08:05:01.503Z,43.65
2022-08-04T08:07:32.747Z,41.29
2022-08-04T08:09:59.766Z,43.74
2022-08-04T08:12:36.517Z,43.25
2022-08-04T08:15:19.953Z,43.09
2022-08-04T08:17:58.697Z,43.22
2022-08-04T08:20:32.251Z,41.69
2022-08-04T08:23:08.503Z,43.20
2022-08-04T08:25:36.301Z,42.27
2022-08-04T08:28:04.932Z,41.43
2022-08-04T08:30:35.831Z,40.83
2022-08-04T08:33:07.076Z,41.54
2022-08-04T08:35:55.004Z,43.71
2022-08-04T08:38:36.332Z,43.01
2022-08-04T08:41:23.320Z,44.15
2022-08-04T08:44:19.230Z,41.69
2022-08-04T08:47:23.823Z,41.51
2022-08-04T08:50:32.094Z,41.56
2022-08-04T08:53:23.160Z,40.93
2022-08-04T08:56:11.711Z,40.08
2022-08-04T08:58:59.290Z,39.52
2022-08-04T09:01:48.358Z,40.05
2022-08-04T09:04:41.459Z,38.23
2022-08-04T09:07:33.023Z,38.78
2022-08-04T09:10:15.715Z,38.29
2022-08-04T09:12:50.661Z,38.26
2022-08-04T09:15:28.101Z,38.30
2022-08-04T09:18:04.646Z,38.21
2022-08-04T09:20:37.957Z,38.94
2022-08-04T09:23:19.971Z,39.74
2022-08-04T09:25:59.378Z,36.97
2022-08-04T09:28:53.156Z,37.69
2022-08-04T09:31:21.019Z,36.63
2022-08-04T09:33:57.359Z,37.21
2022-08-04T09:36:37.612Z,36.74
2022-08-04T09:39:22.233Z,34.31
2022-08-04T09:42:03.609Z,35.21
2022-08-04T09:44:53.052Z,35.24
2022-08-04T09:47:39.555Z,35.56
2022-08-04T09:50:34.391Z,35.33
2022-08-04T09:53:15.701Z,34.73
2022-08-04T09:55:55.349Z,33.12
2022-08-04T09:58:44.173Z,32.56
2022-08-04T10:01:22.427Z,34.48
2022-08-04T10:03:53.441Z,34.12
2022-08-04T10:06:42.812Z,33.58
2022-08-04T10:09:21.142Z,32.42
2022-08-04T10:12:08.308Z,31.76
2022-08-04T10:14:46.714Z,33.04
2022-08-04T10:17:51.785Z,32.18
2022-08-04T10:20:51.722Z,33.44
2022-08-04T10:23:56.186Z,31.65
2022-08-04T10:26:33.435Z,29.67
2022-08-04T10:29:05.332Z,33.04
2022-08-04T10:31:40.679Z,32.84
2022-08-04T10:34:14.043Z,31.08
2022-08-04T10:36:53.835Z,32.32
2022-08-04T10:39:43.644Z,30.70
2022-08-04T10:42:25.182Z,31.85
2022-08-04T10:45:06.158Z,31.86
2022-08-04T10:47:45.294Z,28.89
2022-08-04T10:50:23.565Z,33.09
2022-08-04T10:53:02.990Z,28.88
2022-08-04T10:56:07.778Z,32.10
2022-08-04T10:58:48.058Z,33.11
2022-08-04T11:02:01.475Z,32.05
2022-08-04T11:04:16.073Z,30.02
2022-08-04T11:06:55.548Z,31.08
2022-08-04T11:09:23.083Z,31.63
2022-08-04T11:12:00.890Z,30.01
2022-08-04T11:14:40.041Z,27.73
2022-08-04T11:17:11.670Z,30.45
2022-08-04T11:19:52.827Z,26.96
2022-08-04T11:22:26.005Z,32.65
2022-08-04T11:25:02.526Z,30.78
2022-08-04T11:27:37.557Z,31.00
2022-08-04T11:30:07.190Z,30.92
2022-08-04T11:32:43.847Z,29.71
2022-08-04T11:35:23.561Z,29.78
2022-08-04T11:37:57.241Z,28.19
2022-08-04T11:40:28.641Z,27.30
2022-08-04T11:43:00.982Z,26.23
2022-08-04T11:45:38.996Z,25.70
2022-08-04T11:48:11.171Z,27.66
2022-08-04T11:50:51.604Z,29.54
2022-08-04T11:53:23.842Z,23.24
2022-08-04T11:56:06.931Z,26.67
2022-08-04T11:58:35.260Z,27.12
2022-08-04T12:01:12.042Z,26.21
2022-08-04T12:04:03.370Z,30.50
2022-08-04T12:06:50.308Z,31.09
2022-08-04T12:09:36.259Z,29.91
2022-08-04T12:12:19.269Z,27.23
2022-08-04T12:14:56.028Z,25.84
2022-08-04T12:17:52.098Z,27.61
2022-08-04T12:20:34.439Z,27.60
2022-08-04T12:23:17.852Z,27.09
2022-08-04T12:25:50.623Z,28.25
2022-08-04T12:28:26.789Z,27.72
2022-08-04T12:31:03.462Z,28.12
2022-08-04T12:34:05.497Z,27.78
2022-08-04T12:36:35.871Z,26.89
2022-08-04T12:39:10.324Z,28.39
2022-08-04T12:41:42.533Z,29.50
2022-08-04T12:44:36.479Z,28.67
2022-08-04T12:47:26.287Z,25.31
2022-08-04T12:50:00.640Z,25.44
2022-08-04T12:52:59.035Z,24.04
2022-08-04T12:55:40.643Z,27.50
2022-08-04T12:58:42.172Z,27.93
2022-08-04T13:02:08.770Z,27.68
2022-08-04T13:04:00.266Z,26.36
2022-08-04T13:06:30.401Z,27.58
2022-08-04T13:09:03.743Z,28.83
2022-08-04T13:11:37.046Z,28.53
2022-08-04T13:14:26.058Z,26.84
2022-08-04T13:16:58.159Z,25.90
2022-08-04T13:19:26.106Z,27.97
2022-08-04T13:25:17.903Z,27.89
2022-08-04T13:27:43.377Z,29.04
2022-08-04T13:30:23.206Z,30.44
2022-08-04T13:30:25.057Z,26.82
2022-08-04T13:32:59.750Z,27.16
2022-08-04T13:35:56.058Z,30.51
2022-08-04T13:38:17.716Z,30.09
2022-08-04T13:40:48.471Z,29.24
2022-08-04T13:44:16.043Z,28.28
2022-08-04T13:46:27.208Z,30.15
2022-08-04T13:52:00.398Z,29.29
2022-08-04T13:54:36.543Z,30.14
2022-08-04T13:57:16.158Z,30.33
2022-08-04T13:59:50.608Z,28.92
2022-08-04T14:02:34.307Z,30.91
2022-08-04T14:05:18.504Z,31.10
2022-08-04T14:07:54.807Z,31.57
2022-08-04T14:10:34.938Z,32.25
2022-08-04T14:13:10.800Z,31.55
2022-08-04T14:16:01.256Z,32.27
2022-08-04T14:18:33.179Z,29.90
2022-08-04T14:21:06.943Z,31.33
2022-08-04T14:23:48.186Z,32.33
2022-08-04T14:26:21.691Z,31.35
2022-08-04T14:29:28.270Z,31.74
2022-08-04T14:32:22.836Z,30.57
2022-08-04T14:34:58.895Z,31.91
2022-08-04T14:37:47.376Z,32.01
2022-08-04T14:40:30.617Z,32.94
2022-08-04T14:43:00.171Z,32.39
2022-08-04T14:45:31.139Z,31.96
2022-08-04T14:48:07.059Z,31.44
2022-08-04T14:50:38.834Z,30.41
2022-08-04T14:53:10.244Z,32.67
2022-08-04T14:55:38.806Z,33.65
2022-08-04T14:58:34.552Z,31.88
2022-08-04T15:00:58.346Z,32.52
2022-08-04T15:03:28.543Z,33.10
2022-08-04T15:06:08.039Z,32.18
2022-08-04T15:08:38.803Z,33.59
2022-08-04T15:11:06.049Z,34.42
2022-08-04T15:13:33.934Z,31.29
2022-08-04T15:16:07.724Z,32.57
2022-08-04T15:18:38.825Z,33.61
2022-08-04T15:21:09.300Z,34.24
2022-08-04T15:23:42.068Z,32.69
2022-08-04T15:26:19.188Z,34.47
2022-08-04T15:28:55.744Z,33.07
2022-08-04T15:32:07.516Z,33.88
2022-08-04T15:34:16.805Z,33.64
2022-08-04T15:36:56.314Z,33.95
2022-08-04T15:39:36.107Z,32.35
2022-08-04T15:42:21.001Z,33.45
2022-08-04T15:45:13.030Z,34.95
2022-08-04T15:47:40.978Z,34.06
2022-08-04T15:50:14.632Z,35.63
2022-08-04T15:53:10.281Z,35.23
2022-08-04T15:55:40.978Z,35.26
2022-08-04T15:58:11.574Z,36.14
2022-08-04T16:01:16.234Z,34.47
2022-08-04T16:03:58.338Z,33.24
2022-08-04T16:06:46.385Z,36.40
2022-08-04T16:09:45.328Z,35.22
2022-08-04T16:12:54.502Z,36.22
2022-08-04T16:15:39.323Z,36.80
2022-08-04T16:18:15.141Z,37.15
2022-08-04T16:20:57.902Z,37.21
2022-08-04T16:24:08.651Z,37.21
2022-08-04T16:26:45.566Z,38.08
2022-08-04T16:29:41.357Z,38.58
2022-08-04T16:32:13.617Z,38.91
2022-08-04T16:34:49.374Z,39.52
2022-08-04T16:37:24.979Z,38.32
2022-08-04T16:40:31.685Z,37.01
2022-08-04T16:43:10.146Z,38.63
2022-08-04T16:45:46.092Z,39.81
2022-08-04T16:48:17.885Z,39.38
2022-08-04T16:51:05.888Z,40.02
2022-08-04T16:53:52.090Z,38.99
2022-08-04T16:56:32.957Z,39.73
2022-08-04T16:59:08.099Z,39.04
2022-08-04T17:01:36.127Z,39.50
2022-08-04T17:04:04.539Z,39.31
2022-08-04T17:06:37.144Z,40.71
2022-08-04T17:09:10.589Z,40.19
2022-08-04T17:11:39.564Z,39.88
2022-08-04T17:14:07.571Z,41.50
2022-08-04T17:16:38.899Z,41.10
2022-08-04T17:19:07.378Z,41.95
2022-08-04T17:21:51.417Z,42.75
2022-08-04T17:24:20.620Z,42.53
2022-08-04T17:26:53.477Z,43.12
2022-08-04T17:29:44.490Z,42.74
2022-08-04T17:32:17.104Z,43.21
2022-08-04T17:34:49.332Z,40.49
2022-08-04T17:40:10.358Z,40.98
2022-08-04T17:42:39.208Z,42.19
2022-08-04T17:45:39.594Z,41.56
2022-08-04T17:47:55.546Z,46.06
2022-08-04T17:50:31.718Z,51.61
2022-08-04T17:53:00.075Z,45.70
2022-08-04T17:55:40.070Z,54.11
2022-08-04T17:58:31.222Z,50.84
2022-08-04T18:01:23.466Z,48.76
2022-08-04T18:03:53.613Z,42.05
2022-08-04T18:06:22.495Z,45.43
2022-08-04T18:09:25.852Z,45.06
2022-08-04T18:12:14.808Z,51.64
2022-08-04T18:14:49.167Z,48.72
2022-08-04T18:18:22.177Z,50.01
2022-08-04T18:20:20.044Z,49.04
2022-08-04T18:22:54.876Z,52.24
2022-08-04T18:25:21.675Z,52.05
2022-08-04T18:28:26.885Z,53.16
2022-08-04T18:30:57.271Z,57.80
2022-08-04T18:33:37.814Z,57.72
2022-08-04T18:36:35.232Z,56.76
2022-08-04T18:42:03.721Z,55.13
2022-08-04T18:44:32.165Z,55.99
2022-08-04T18:47:22.622Z,56.61
2022-08-04T18:51:01.836Z,62.32
2022-08-04T18:52:45.570Z,62.10
2022-08-04T18:55:56.092Z,62.40
2022-08-04T18:58:08.501Z,56.66
2022-08-04T19:00:45.715Z,58.00
2022-08-04T19:03:22.048Z,57.97
2022-08-04T19:05:51.423Z,61.27
2022-08-04T19:08:34.667Z,58.13
2022-08-04T19:14:13.256Z,58.93
2022-08-04T19:16:46.073Z,57.95
2022-08-04T19:19:16.257Z,59.26
2022-08-04T19:22:01.220Z,60.13
2022-08-04T19:24:35.813Z,59.79
2022-08-04T19:27:09.738Z,59.28
2022-08-04T19:29:40.693Z,58.59
2022-08-04T19:32:14.620Z,59.07
2022-08-04T19:34:48.683Z,60.89
2022-08-04T19:37:56.703Z,58.65
2022-08-04T19:40:12.919Z,61.97
2022-08-04T19:42:40.741Z,61.13
2022-08-04T19:45:15.736Z,61.66
2022-08-04T19:48:12.101Z,60.88
2022-08-04T19:50:37.320Z,60.79
2022-08-04T19:55:55.587Z,60.80
2022-08-04T19:58:26.000Z,62.82
2022-08-04T20:00:55.939Z,58.74
2022-08-04T20:03:23.085Z,57.92
2022-08-04T20:06:14.652Z,56.95
2022-08-04T20:08:48.492Z,56.24
2022-08-04T20:11:25.494Z,54.96
2022-08-04T20:13:55.314Z,55.24
2022-08-04T20:16:30.171Z,57.57
2022-08-04T20:19:03.330Z,58.24
2022-08-04T20:21:55.937Z,57.83
2022-08-04T20:24:38.072Z,56.33
2022-08-04T20:27:18.218Z,55.76
2022-08-04T20:29:52.539Z,57.77
2022-08-04T20:32:26.755Z,60.45
2022-08-04T20:34:57.076Z,60.35
2022-08-04T20:37:55.245Z,60.34
2022-08-04T20:40:15.025Z,60.42
2022-08-04T20:42:49.479Z,61.62
2022-08-04T20:45:17.463Z,60.55
2022-08-04T20:47:53.203Z,63.00
2022-08-04T20:50:30.334Z,60.05
2022-08-04T20:52:59.821Z,62.07
2022-08-04T20:55:29.383Z,61.94
2022-08-04T20:58:02.470Z,60.18
2022-08-04T21:00:32.325Z,60.51
2022-08-04T21:02:59.717Z,61.23
2022-08-04T21:05:27.291Z,61.55
2022-08-04T21:07:54.576Z,61.69
2022-08-04T21:10:26.037Z,61.00
2022-08-04T21:12:54.865Z,62.00
2022-08-04T21:15:25.794Z,61.72
2022-08-04T21:17:59.483Z,63.99
2022-08-04T21:20:32.396Z,62.48
2022-08-04T21:23:02.143Z,63.93
2022-08-04T21:25:42.710Z,64.73
2022-08-04T21:28:10.593Z,66.26
2022-08-04T21:30:53.906Z,66.05
2022-08-04T21:33:43.920Z,66.37
2022-08-04T21:36:16.055Z,65.81
2022-08-04T21:38:52.021Z,68.25
2022-08-04T21:41:24.722Z,66.91
2022-08-04T21:43:55.832Z,66.41
2022-08-04T21:46:25.015Z,66.47
2022-08-04T21:48:52.947Z,66.53
2022-08-04T21:51:57.998Z,68.56
2022-08-04T21:54:17.324Z,68.57
2022-08-04T21:56:50.940Z,68.97
2022-08-04T21:59:23.285Z,69.26
2022-08-04T22:02:00.092Z,68.93
2022-08-04T22:04:27.737Z,69.04
2022-08-04T22:06:55.825Z,70.17
2022-08-04T22:09:22.655Z,70.34
2022-08-04T22:11:53.094Z,68.71
2022-08-04T22:14:29.039Z,70.09
2022-08-04T22:16:57.301Z,71.03
2022-08-04T22:19:50.756Z,69.98
2022-08-04T22:22:24.791Z,70.59
2022-08-04T22:24:54.867Z,68.62
2022-08-04T22:27:24.592Z,70.05
2022-08-04T22:29:54.705Z,71.40
2022-08-04T22:32:22.316Z,70.64
2022-08-04T22:34:53.482Z,71.17
2022-08-04T22:37:21.166Z,72.37
2022-08-04T22:40:04.938Z,71.63
2022-08-04T22:42:34.873Z,73.56
2022-08-04T22:45:03.362Z,76.02
2022-08-04T22:47:35.861Z,73.42
2022-08-04T22:50:27.608Z,72.70
2022-08-04T22:52:56.325Z,73.96
2022-08-04T22:55:25.759Z,74.00
2022-08-04T22:58:15.367Z,72.07
2022-08-04T23:00:45.907Z,73.48
2022-08-04T23:03:37.269Z,73.39
2022-08-04T23:06:10.824Z,73.05
2022-08-04T23:08:39.329Z,74.14
2022-08-04T23:11:11.709Z,77.04
2022-08-04T23:13:41.092Z,79.32
2022-08-04T23:16:11.347Z,75.76
2022-08-04T23:18:42.127Z,76.63
2022-08-04T23:21:11.038Z,76.22
2022-08-04T23:23:55.397Z,77.07
2022-08-04T23:26:28.305Z,77.23
2022-08-04T23:28:56.902Z,76.44
2022-08-04T23:31:25.105Z,76.88
2022-08-04T23:34:12.082Z,77.45
2022-08-04T23:39:17.505Z,73.54
2022-08-04T23:41:54.269Z,73.93
2022-08-04T23:44:26.920Z,73.00
2022-08-04T23:47:03.706Z,77.28
2022-08-04T23:49:40.569Z,79.06
2022-08-04T23:52:27.710Z,77.86
2022-08-04T23:54:58.244Z,76.95
2022-08-04T23:57:31.530Z,76.60
